TimePST,TemperatureF,Dew PointF,Humidity,Sea Level PressureIn,VisibilityMPH,Wind Direction,Wind SpeedMPH,Gust SpeedMPH,PrecipitationIn,Events,Conditions,WindDirDegrees,DateUTC
12:53 AM,24.1,21.0,88,29.98,-9999.0,Calm,Calm,-,N/A,,Overcast,0,2013-01-28 08:53:00
1:53 AM,24.1,21.0,88,29.98,-9999.0,Calm,Calm,-,N/A,,Overcast,0,2013-01-28 09:53:00
4:53 AM,21.9,19.0,89,29.99,-9999.0,Calm,Calm,-,N/A,,Overcast,0,2013-01-28 12:53:00
5:53 AM,21.9,18.0,85,29.99,-9999.0,Calm,Calm,-,N/A,,Overcast,0,2013-01-28 13:53:00
6:34 AM,24.8,19.4,80,29.92,-9999.0,WNW,11.5,-,N/A,,Scattered Clouds,300,2013-01-28 14:34:00
6:53 AM,28.0,23.0,81,29.99,-9999.0,WNW,8.1,-,N/A,,Clear,300,2013-01-28 14:53:00
7:53 AM,27.0,23.0,85,30.00,-9999.0,Variable,3.5,-,N/A,,Clear,0,2013-01-28 15:53:00
8:53 AM,24.1,19.0,81,30.01,-9999.0,Calm,Calm,-,N/A,,Clear,0,2013-01-28 16:53:00
9:53 AM,32.0,26.1,79,29.99,-9999.0,West,3.5,-,N/A,,Clear,280,2013-01-28 17:53:00
10:53 AM,33.1,28.0,82,29.99,-9999.0,Calm,Calm,-,N/A,,Clear,0,2013-01-28 18:53:00
11:53 AM,36.0,28.9,76,29.98,-9999.0,West,3.5,-,N/A,,Clear,280,2013-01-28 19:53:00
12:53 PM,39.0,28.9,67,29.95,10.0,Variable,3.5,-,N/A,,Mostly Cloudy,0,2013-01-28 20:53:00
1:53 PM,39.9,28.9,65,29.94,10.0,NW,12.7,17.3,N/A,,Clear,310,2013-01-28 21:53:00
2:53 PM,41.0,30.0,65,29.92,10.0,WNW,13.8,-,N/A,,Clear,300,2013-01-28 22:53:00
3:53 PM,39.0,30.0,70,29.93,10.0,WNW,13.8,-,N/A,,Clear,300,2013-01-28 23:53:00
4:53 PM,37.9,30.0,73,29.91,10.0,NW,8.1,-,N/A,,Clear,310,2013-01-29 00:53:00
5:53 PM,37.9,28.9,70,29.92,10.0,WNW,6.9,-,N/A,,Clear,290,2013-01-29 01:53:00
6:53 PM,37.9,30.0,73,29.91,10.0,NW,11.5,-,N/A,,Clear,310,2013-01-29 02:53:00
7:53 PM,37.9,30.0,73,29.91,10.0,WNW,12.7,-,N/A,,Clear,300,2013-01-29 03:53:00
8:53 PM,37.9,30.0,73,29.91,10.0,WNW,15.0,25.3,N/A,,Clear,300,2013-01-29 04:53:00
9:53 PM,37.0,30.0,76,29.92,10.0,WNW,20.7,26.5,N/A,,Clear,300,2013-01-29 05:53:00
10:53 PM,39.0,30.0,70,29.92,10.0,WNW,20.7,28.8,N/A,,Clear,290,2013-01-29 06:53:00
11:53 PM,39.0,30.0,70,29.93,10.0,WNW,17.3,25.3,N/A,,Clear,300,2013-01-29 07:53:00